Résultats

Martigues-Carro - LA MARCHE - 9KM. Édition 2015.

9 Km
31/05/2015 à 00:00:00 - ()
108 arrivant(e)s.


 
Les autres classements de cet évènement




Place▲ Temps Dossard Nom Prenom Categ #Categ Sexe #Sexe Club Vit Moy Diplôme Partager
1 00:57:44 1122 CHANIN PHILIPPE V2M 1 M 1 OVS 9.35
2 00:59:02 1163 MICHEL BRUNO V2M 2 M 2 OVS 9.15
3 00:59:31 1102 ABERTON JEROME V1M 1 M 3 OVS 9.07
4 01:00:42 1181 SANNINO PATRICK V2M 3 M 4 8.90
5 01:01:23 1126 CURTEL SYLVAIN V2M 4 M 5 OVS 8.80
6 01:02:48 1167 NICOLA VERONIQUE V2F 1 F 1 VILLAGE CLUB DU SOLEIL 8.60
7 01:03:14 1177 RENIA STEPHEN V2M 5 M 6 8.54
8 01:03:55 1139 FACCHIN GUY V3M 1 M 7 8.45
9 01:04:08 1077 MIGUEL JOSE V2M 6 M 8 8.42
10 01:04:12 1162 MAZZELLA ROBERT V3M 2 M 9 OVS 8.41
11 01:04:14 1191 THER ALEXANDRA V1F 1 F 2 LE GRAPE 8.41
12 01:04:17 1197 VAUCHEZ RENEE V3F 1 F 3 OVS 8.40
13 01:04:58 1118 BRACCO BERNARD V2M 7 M 10 8.31
14 01:07:19 1142 FOURNIER ROSELINE V2F 2 F 4 8.02
15 01:07:22 1066 KALI REGUIG V2F 3 F 5 8.02
16 01:07:26 1106 AULLEN DANIELLE V2F 4 F 6 OVS 8.01
17 01:08:38 1064 GONZALEZ JEAN V3M 3 M 11 7.87
18 01:09:13 1067 BLASQUEZ GERARD V3M 4 M 12 7.80
19 01:09:57 1119 BRION PASCALE V1F 2 F 7 7.72
20 01:10:38 1103 ALKER JOELLE V2F 5 F 8 7.65
21 01:12:01 1193 VALDOVINOS MONICA-PIA V1F 3 F 9 OVS 7.50
22 01:12:25 1109 BALU PASCAL V2M 8 M 13 7.46
23 01:12:49 1182 SARDA VIRGINIE V1F 4 F 10 OVS 7.42
24 01:13:12 1168 PAPILON SANDRINE V1F 5 F 11 JOGGING CLUB MARTIGUES 7.38
25 01:14:00 1165 MONTI RICHARD V3M 5 M 14 GYM PASSION 7.30
26 01:14:16 1058 JUNG JOEL V2M 9 M 15 7.27
27 01:14:22 1131 DESPAQUIS CHANTAL V1F 6 F 12 JOGGING CLUB MARTIGUES 7.26
28 01:15:31 1073 TEYSSIER JOELLE V1F 7 F 13 7.15
29 01:15:48 1176 PUGLIA ANNIE V3F 2 F 14 OVS 7.12
30 01:15:49 1154 L'HOSTE JEAN-MARIE V3M 6 M 16 ISTRES TEMPS LIBRE 7.12
31 01:16:03 1062 BARBAROUX JEAN V3M 7 M 17 COURIR A SAUSSET 7.10
32 01:16:04 1063 GARCIN NADINE V2F 6 F 15 7.10
33 01:16:21 1065 VIVALDA MARIE V2F 7 F 16 7.07
34 01:16:24 1157 LE-DANTEC DANIELE V2F 8 F 17 7.07
35 01:16:28 1149 GINOUX BRIGITTE V2F 9 F 18 JOGGING CLUB MARTIGUES 7.06
36 01:16:28 1133 DUBOIS MONIQUE V3F 3 F 19 OVS 7.06
37 01:16:31 1141 FERRY ISABELLE SEF 1 F 20 JOGGING CLUB MARTIGUES 7.06
38 01:16:37 1183 SERRES MONIQUE V2F 10 F 21 JOGGING CLUB MARTIGUES 7.05
39 01:17:02 1061 CASTELLO JOSEPH V3M 8 M 18 7.01
40 01:17:22 1059 JUNG GHISLAINE V2F 11 F 22 6.98
41 01:17:35 1116 BOUMAZA DIDIER V2M 10 M 19 6.96
42 01:18:04 1185 SIMONETTI LYDIA V2F 12 F 23 6.92
43 01:19:05 1198 VERGNOL JACQUES V4M 1 M 20 6.83
44 01:19:30 1159 MALTA EMILIE SEF 2 F 24 6.79
45 01:19:30 1160 MALTA NATHALIE V1F 8 F 25 6.79
46 01:19:41 1130 DEPEYRE MARIE-GEORGES V1F 9 F 26 CA VEYNES 6.78
47 01:19:50 1075 DANABACHE BARKA V1F 10 F 27 6.76
48 01:19:51 1074 BOURANOUCHE SAMIA SEF 3 F 28 6.76
49 01:19:53 1111 BASSO ALICIA ESF 1 F 29 JOGGING CLUB MARTIGUES 6.76
50 01:19:53 1184 SIGONNEAU PIERRETTE V3F 4 F 30 JOGGING CLUB MARTIGUES 6.76
51 01:19:53 1076 RODIER CHARLOTTE SEF 4 F 31 6.76
52 01:20:05 1110 BAROUNIAN CRYSTEL V1F 11 F 32 6.74
53 01:20:08 1147 GHIRARDI MANUELA V2F 13 F 33 6.74
54 01:20:08 1146 GHIRARDI CHRISTIAN V2M 11 M 21 6.74
55 01:20:24 1178 RIKARIKA MARIE-FRANCE V3F 5 F 34 6.72
56 01:20:24 1115 BORG CHRISTINE V1F 12 F 35 6.72
57 01:20:24 1196 VASSEUR CATHERINE V2F 14 F 36 6.72
58 01:20:28 1052 EMANUEL JOELLE V3F 6 F 37 JOIE ET SANTE 6.71
59 01:20:36 1140 FAUCONNET NATHALIE V1F 13 F 38 FOULEE PORT DE BOUCAINE 6.70
60 01:20:37 1150 GOMEZ LOUISA V1F 14 F 39 FOULEE PORT DE BOUCAINE 6.70
61 01:20:37 1179 ROHART NATHALIE V1F 15 F 40 6.70
62 01:20:38 1173 PONTRE VALERIE V1F 16 F 41 6.70
63 01:20:58 1171 PETIT PATRICIA V2F 15 F 42 6.67
64 01:21:00 1104 ANDRYSEK-SOLER ANTONELLA V2F 16 F 43 ACTEMIUM 6.67
65 01:21:36 1055 ANASTASIOU ALEXANDRE V5M 1 M 22 6.62
66 01:22:12 1105 ANDRYSEK-SOLER CHRISTIAN V2M 12 M 23 ACTEMIUM 6.57
67 01:22:13 1051 PRINCIC JOSYANE V4F 1 F 44 SLC 6.57
68 01:22:48 1113 BEZZAH NORA V2F 17 F 45 6.52
69 01:23:24 1166 NAKLE LILIANE V2F 18 F 46 OVS 6.47
70 01:23:24 1072 GAZELLE MONIQUE V3F 7 F 47 6.47
71 01:23:34 1056 HANASTASIOU CLAIRE SEF 5 F 48 6.46
72 01:23:36 1069 ANDRUZKO ARLETTE V4F 2 F 49 6.46
73 01:24:04 1192 UTTWILLER MICHELE V3F 8 F 50 6.42
74 01:24:53 1060 GUYON MARIE-ANTOINETTE V3F 9 F 51 6.36
75 01:26:42 1070 ANDRUZKO GERARD V4M 2 M 24 6.23
76 01:26:45 1057 BELLOT AUGUSTIN V4M 3 M 25 6.22
77 01:26:56 1120 BUENO MIREILLE V1F 17 F 52 6.21
78 01:27:44 1175 POUILLOT LYSIANE SEF 6 F 53 MAISON DE QUARTIER DE CROIX SAINTE 6.16
79 01:27:48 1190 N:Anonyme 1190 P:Anonyme 1190 V3F 10 F 54 JOGGING CLUB MARTIGUES 6.15
80 01:27:48 1107 BADOR JEAN-PHILIPPE V3M 9 M 26 MAISON DE QUARTIER DE CROIX SAINTE 6.15
81 01:27:49 1108 BADOR NICOLE V3F 11 F 55 MAISON DE QUARTIER DE CROIX SAINTE 6.15
82 01:27:51 1144 GEIGLE-CLEMENT PATRICIA V2F 19 F 56 JOGGING CLUB MARTIGUES 6.15
83 01:28:47 1164 MONTI MARIE-JEANNE V4F 3 F 57 GYM PASSION 6.08
84 01:28:51 1148 GILLET BEATRICE V1F 18 F 58 6.08
85 01:29:41 1132 DIEUPART JOELLE V3F 12 F 59 JOGGING CLUB MARTIGUES 6.02
86 01:29:41 1125 CHIUMMO JOSIANE V2F 20 F 60 JOGGING CLUB MARTIGUES 6.02
87 01:29:41 1161 MATELLI MARYLENE V2F 21 F 61 JOGGING CLUB MARTIGUES 6.02
88 01:29:42 1053 PONS JEANETTE V4F 4 F 62 6.02
89 01:29:47 1172 PONS CHRISTOPHE V2M 13 M 27 6.01
90 01:29:51 1054 PONS JEAN-MARIE V4M 4 M 28 6.01
91 01:29:53 1068 BLASQUEZ ANNIE V3F 13 F 63 6.01
92 01:30:28 1129 DELESTY NICOLE V2F 22 F 64 5.97
93 01:30:31 1114 BIENFAIT PATRICIA V3F 14 F 65 5.97
94 01:31:02 1195 VASSAS MARIE-PAULE V3F 15 F 66 MAISON DE QUARTIER DE CROIX SAINTE 5.93
95 01:31:03 1143 GADZINSKI MARIE-ASTRID V3F 16 F 67 MAISON DE QUARTIER DE CROIX SAINTE 5.93
96 01:31:07 1156 LAURO J.M V1M 2 M 29 5.93
97 01:34:17 1138 FABRE MANON SEF 7 F 68 5.73
98 01:34:17 1137 FABRE JOELE V2F 23 F 69 5.73
99 01:35:32 1134 DURIEZ REJANE V3F 17 F 70 ISTRES TEMPS LIBRE 5.65
100 01:35:54 1188 STREIFF SYLVIE V2F 24 F 71 5.63